createdAt,value
2022-08-27T00:02:21.343Z,10.07
2022-08-27T00:04:50.066Z,9.57
2022-08-27T00:07:18.357Z,9.02
2022-08-27T00:09:46.637Z,11.02
2022-08-27T00:12:14.876Z,8.27
2022-08-27T00:14:43.030Z,9.32
2022-08-27T00:17:11.961Z,10.57
2022-08-27T00:19:42.377Z,10.07
2022-08-27T00:22:11.991Z,10.30
2022-08-27T00:24:48.562Z,11.35
2022-08-27T00:27:17.975Z,11.65
2022-08-27T00:29:46.475Z,11.10
2022-08-27T00:32:14.775Z,12.65
2022-08-27T00:34:44.633Z,10.80
2022-08-27T00:37:12.873Z,11.45
2022-08-27T00:39:41.206Z,11.25
2022-08-27T00:42:09.684Z,9.88
2022-08-27T00:44:38.851Z,12.25
2022-08-27T00:47:11.825Z,12.40
2022-08-27T00:49:44.142Z,11.07
2022-08-27T00:52:21.967Z,12.00
2022-08-27T00:54:52.375Z,10.35
2022-08-27T00:57:21.145Z,12.55
2022-08-27T00:59:49.887Z,11.95
2022-08-27T01:02:20.872Z,15.05
2022-08-27T01:04:56.436Z,11.30
2022-08-27T01:07:28.738Z,12.40
2022-08-27T01:10:00.388Z,11.77
2022-08-27T01:12:34.649Z,14.05
2022-08-27T01:15:06.901Z,14.73
2022-08-27T01:17:37.812Z,12.77
2022-08-27T01:20:09.474Z,12.05
2022-08-27T01:22:50.260Z,14.70
2022-08-27T01:25:21.611Z,13.30
2022-08-27T01:27:50.128Z,16.48
2022-08-27T01:30:21.611Z,16.40
2022-08-27T01:32:50.368Z,14.77
2022-08-27T01:35:20.521Z,14.23
2022-08-27T01:37:52.242Z,17.88
2022-08-27T01:40:22.857Z,17.17
2022-08-27T01:42:54.432Z,13.43
2022-08-27T01:45:25.741Z,14.75
2022-08-27T01:47:54.436Z,18.25
2022-08-27T01:50:24.966Z,16.15
2022-08-27T01:52:54.386Z,18.15
2022-08-27T01:55:26.538Z,15.32
2022-08-27T01:57:55.551Z,14.55
2022-08-27T02:00:27.667Z,14.85
2022-08-27T02:02:56.342Z,16.23
2022-08-27T02:05:25.418Z,13.68
2022-08-27T02:07:54.257Z,13.75
2022-08-27T02:10:30.690Z,15.45
2022-08-27T02:13:24.101Z,17.45
2022-08-27T02:15:52.332Z,15.80
2022-08-27T02:18:20.693Z,16.30
2022-08-27T02:20:49.628Z,13.98
2022-08-27T02:23:19.068Z,13.32
2022-08-27T02:25:48.952Z,14.32
2022-08-27T02:28:17.142Z,13.48
2022-08-27T02:30:45.673Z,17.02
2022-08-27T02:33:14.822Z,14.88
2022-08-27T02:35:44.275Z,14.43
2022-08-27T02:38:14.084Z,13.07
2022-08-27T02:40:42.576Z,14.52
2022-08-27T02:43:15.963Z,16.33
2022-08-27T02:45:53.245Z,14.73
2022-08-27T02:48:21.861Z,21.58
2022-08-27T02:50:50.047Z,14.13
2022-08-27T02:53:18.603Z,14.50
2022-08-27T02:55:46.970Z,14.05
2022-08-27T02:58:16.931Z,14.30
2022-08-27T03:00:45.434Z,14.43
2022-08-27T03:03:13.683Z,15.35
2022-08-27T03:05:41.892Z,12.65
2022-08-27T03:08:10.484Z,16.75
2022-08-27T03:10:40.077Z,14.80
2022-08-27T03:13:08.291Z,15.07
2022-08-27T03:15:38.147Z,14.18
2022-08-27T03:18:21.421Z,14.55
2022-08-27T03:20:52.511Z,14.50
2022-08-27T03:23:23.161Z,13.80
2022-08-27T03:25:55.362Z,14.68
2022-08-27T03:28:25.841Z,13.48
2022-08-27T03:30:58.475Z,15.13
2022-08-27T03:33:27.273Z,14.73
2022-08-27T03:35:55.585Z,17.05
2022-08-27T03:38:24.177Z,14.93
2022-08-27T03:40:53.060Z,14.13
2022-08-27T03:43:23.374Z,18.38
2022-08-27T03:46:01.910Z,15.27
2022-08-27T03:48:34.023Z,14.63
2022-08-27T03:51:07.521Z,17.05
2022-08-27T03:53:36.455Z,16.33
2022-08-27T03:56:06.263Z,17.45
2022-08-27T03:58:34.858Z,18.30
2022-08-27T04:01:04.958Z,17.77
2022-08-27T04:03:35.382Z,17.35
2022-08-27T04:06:04.093Z,16.67
2022-08-27T04:08:33.075Z,17.10
2022-08-27T04:11:01.398Z,18.48
2022-08-27T04:13:29.596Z,19.10
2022-08-27T04:15:58.055Z,20.42
2022-08-27T04:18:26.378Z,20.00
2022-08-27T04:20:56.738Z,17.65
2022-08-27T04:23:25.159Z,17.20
2022-08-27T04:25:53.418Z,19.00
2022-08-27T04:28:21.661Z,19.95
2022-08-27T04:30:49.969Z,20.92
2022-08-27T04:33:18.183Z,19.75
2022-08-27T04:35:46.494Z,19.23
2022-08-27T04:38:16.154Z,18.95
2022-08-27T04:41:01.598Z,18.48
2022-08-27T04:43:29.886Z,19.58
2022-08-27T04:45:58.166Z,19.23
2022-08-27T04:48:27.087Z,18.73
2022-08-27T04:50:55.530Z,18.63
2022-08-27T04:53:25.617Z,20.77
2022-08-27T04:55:56.320Z,21.77
2022-08-27T04:58:26.280Z,17.52
2022-08-27T05:00:56.236Z,15.20
2022-08-27T05:03:26.154Z,16.08
2022-08-27T05:05:59.734Z,16.70
2022-08-27T05:08:29.362Z,15.27
2022-08-27T05:10:58.589Z,17.20
2022-08-27T05:13:27.113Z,15.95
2022-08-27T05:16:00.333Z,14.98
2022-08-27T05:18:29.034Z,18.00
2022-08-27T05:20:58.214Z,15.95
2022-08-27T05:23:27.964Z,18.83
2022-08-27T05:25:58.612Z,16.85
2022-08-27T05:28:29.249Z,20.75
2022-08-27T05:31:05.058Z,17.65
2022-08-27T05:33:34.184Z,16.95
2022-08-27T05:36:02.853Z,17.20
2022-08-27T05:38:32.354Z,13.38
2022-08-27T05:41:07.089Z,14.93
2022-08-27T05:43:35.916Z,14.55
2022-08-27T05:46:06.955Z,14.95
2022-08-27T05:48:36.334Z,15.57
2022-08-27T05:51:10.486Z,14.25
2022-08-27T05:53:39.555Z,21.38
2022-08-27T05:56:14.933Z,14.55
2022-08-27T05:59:00.822Z,18.70
2022-08-27T06:01:31.065Z,16.63
2022-08-27T06:03:59.366Z,15.73
2022-08-27T06:06:27.597Z,16.30
2022-08-27T06:10:14.442Z,13.18
2022-08-27T06:12:44.038Z,17.77
2022-08-27T06:15:12.681Z,14.73
2022-08-27T06:17:40.914Z,17.02
2022-08-27T06:20:10.824Z,15.85
2022-08-27T06:22:38.997Z,15.68
2022-08-27T06:25:07.848Z,17.17
2022-08-27T06:27:36.233Z,17.88
2022-08-27T06:30:06.752Z,16.40
2022-08-27T06:32:34.972Z,20.95
2022-08-27T06:35:03.139Z,20.05
2022-08-27T06:37:31.315Z,15.50
2022-08-27T06:39:59.566Z,18.25
2022-08-27T06:42:27.782Z,16.48
2022-08-27T06:44:55.916Z,17.35
2022-08-27T06:47:26.079Z,16.92
2022-08-27T06:49:55.476Z,17.88
2022-08-27T06:52:23.732Z,14.60
2022-08-27T06:54:51.924Z,15.10
2022-08-27T06:57:20.098Z,16.60
2022-08-27T06:59:48.354Z,14.65
2022-08-27T07:02:16.760Z,18.42
2022-08-27T07:04:46.354Z,16.05
2022-08-27T07:07:14.803Z,20.02
2022-08-27T07:10:00.368Z,18.15
2022-08-27T07:12:30.457Z,17.05
2022-08-27T07:14:58.931Z,16.30
2022-08-27T07:17:27.809Z,21.58
2022-08-27T07:19:57.771Z,20.35
2022-08-27T07:22:25.985Z,22.23
2022-08-27T07:24:54.211Z,20.77
2022-08-27T07:27:22.761Z,24.77
2022-08-27T07:29:50.977Z,22.42
2022-08-27T07:32:19.531Z,22.50
2022-08-27T07:34:47.731Z,23.40
2022-08-27T07:37:17.362Z,24.27
2022-08-27T07:39:45.569Z,23.10
2022-08-27T07:42:31.046Z,22.55
2022-08-27T07:44:59.636Z,21.15
2022-08-27T07:47:29.599Z,22.33
2022-08-27T07:49:59.212Z,26.02
2022-08-27T07:52:31.832Z,24.23
2022-08-27T07:55:00.221Z,26.00
2022-08-27T07:57:28.770Z,27.67
2022-08-27T07:59:56.969Z,26.35
2022-08-27T08:02:25.260Z,23.77
2022-08-27T08:04:53.771Z,21.55
2022-08-27T08:07:22.158Z,26.10
2022-08-27T08:09:51.768Z,26.25
2022-08-27T08:12:21.958Z,22.77
2022-08-27T08:14:57.805Z,21.33
2022-08-27T08:17:26.601Z,22.10
2022-08-27T08:20:15.715Z,21.40
2022-08-27T08:22:45.194Z,21.52
2022-08-27T08:25:15.086Z,21.73
2022-08-27T08:27:44.044Z,25.13
2022-08-27T08:30:13.436Z,22.73
2022-08-27T08:32:44.020Z,21.02
2022-08-27T08:35:12.994Z,19.83
2022-08-27T08:37:43.359Z,20.63
2022-08-27T08:40:16.595Z,19.90
2022-08-27T08:42:50.608Z,18.58
2022-08-27T08:45:24.753Z,20.48
2022-08-27T08:47:57.317Z,19.83
2022-08-27T08:50:34.827Z,19.35
2022-08-27T08:53:06.405Z,13.52
2022-08-27T08:55:45.726Z,14.25
2022-08-27T08:58:20.719Z,12.43
2022-08-27T09:00:54.754Z,13.95
2022-08-27T09:03:23.134Z,11.68
2022-08-27T09:05:56.818Z,10.63
2022-08-27T09:08:36.463Z,12.55
2022-08-27T09:11:19.971Z,11.77
2022-08-27T09:13:52.248Z,12.25
2022-08-27T09:16:20.508Z,15.13
2022-08-27T09:18:51.340Z,15.25
2022-08-27T09:21:30.248Z,11.88
2022-08-27T09:24:06.973Z,9.43
2022-08-27T09:26:40.876Z,9.90
2022-08-27T09:29:16.202Z,10.82
2022-08-27T09:31:45.624Z,10.18
2022-08-27T09:34:14.629Z,10.13
2022-08-27T09:37:01.197Z,11.73
2022-08-27T09:39:48.340Z,10.65
2022-08-27T09:42:35.121Z,9.13
2022-08-27T09:45:07.709Z,7.80
2022-08-27T09:47:45.161Z,8.95
2022-08-27T09:50:14.434Z,9.45
2022-08-27T09:52:54.847Z,8.00
2022-08-27T09:55:32.067Z,5.88
2022-08-27T09:58:04.576Z,8.93
2022-08-27T10:00:37.581Z,6.55
2022-08-27T10:03:07.250Z,6.82
2022-08-27T10:05:39.677Z,4.57
2022-08-27T10:08:19.740Z,5.18
2022-08-27T10:10:56.189Z,5.35
2022-08-27T10:13:31.768Z,6.30
2022-08-27T10:16:10.490Z,5.57
2022-08-27T10:18:46.670Z,5.45
2022-08-27T10:21:24.103Z,6.10
2022-08-27T10:24:05.916Z,6.15
2022-08-27T10:26:41.673Z,4.80
2022-08-27T10:29:21.711Z,6.45
2022-08-27T10:32:04.205Z,6.28
2022-08-27T10:34:43.260Z,5.45
2022-08-27T10:37:26.577Z,6.82
2022-08-27T10:40:12.975Z,7.80
2022-08-27T10:42:48.072Z,8.32
2022-08-27T10:45:32.792Z,8.10
2022-08-27T10:48:10.368Z,7.78
2022-08-27T10:50:46.408Z,9.82
2022-08-27T10:53:25.205Z,12.95
2022-08-27T10:56:00.476Z,7.28
2022-08-27T10:58:40.622Z,8.60
2022-08-27T11:01:18.429Z,8.00
2022-08-27T11:03:51.789Z,9.57
2022-08-27T11:06:26.707Z,6.88
2022-08-27T11:08:59.585Z,6.40
2022-08-27T11:12:12.893Z,6.40
2022-08-27T11:14:31.837Z,6.47
2022-08-27T11:17:06.307Z,7.00
2022-08-27T11:19:46.045Z,5.53
2022-08-27T11:22:26.051Z,5.82
2022-08-27T11:25:00.964Z,5.05
2022-08-27T11:27:33.197Z,6.20
2022-08-27T11:30:06.659Z,7.45
2022-08-27T11:32:49.187Z,7.30
2022-08-27T11:35:22.942Z,5.88
2022-08-27T11:38:33.105Z,5.30
2022-08-27T11:41:17.548Z,5.05
2022-08-27T11:43:47.201Z,4.93
2022-08-27T11:46:25.152Z,5.13
2022-08-27T11:49:00.657Z,5.68
2022-08-27T11:51:35.957Z,5.82
2022-08-27T11:54:07.786Z,6.13
2022-08-27T11:56:41.565Z,7.88
2022-08-27T11:59:11.866Z,5.30
2022-08-27T12:01:40.607Z,4.95
2022-08-27T12:04:34.079Z,4.80
2022-08-27T12:07:05.575Z,4.72
2022-08-27T12:09:54.875Z,6.90
2022-08-27T12:12:31.797Z,4.85
2022-08-27T12:15:08.826Z,3.80
2022-08-27T12:17:45.609Z,4.20
2022-08-27T12:20:25.038Z,4.18
2022-08-27T12:23:47.244Z,4.10
2022-08-27T12:26:30.227Z,3.63
2022-08-27T12:29:24.859Z,4.18
2022-08-27T12:32:03.226Z,3.90
2022-08-27T12:34:42.515Z,4.05
2022-08-27T12:37:14.178Z,4.00
2022-08-27T12:39:49.376Z,3.75
2022-08-27T12:42:21.748Z,3.30
2022-08-27T12:44:55.590Z,3.55
2022-08-27T12:47:24.813Z,4.50
2022-08-27T12:49:56.454Z,4.43
2022-08-27T12:52:53.267Z,3.70
2022-08-27T12:55:35.152Z,6.13
2022-08-27T12:58:15.450Z,4.53
2022-08-27T13:01:14.218Z,4.05
2022-08-27T13:03:45.700Z,4.93
2022-08-27T13:06:20.056Z,3.60
2022-08-27T13:08:55.496Z,4.78
2022-08-27T13:11:26.851Z,3.95
2022-08-27T13:14:07.414Z,4.70
2022-08-27T13:16:39.694Z,4.03
2022-08-27T13:19:09.476Z,3.80
2022-08-27T13:21:37.932Z,3.50
2022-08-27T13:24:08.349Z,3.90
2022-08-27T13:26:39.204Z,4.45
2022-08-27T13:29:08.931Z,4.28
2022-08-27T13:31:37.977Z,3.60
2022-08-27T13:34:07.804Z,3.58
2022-08-27T13:36:38.185Z,2.95
2022-08-27T13:39:09.007Z,3.33
2022-08-27T13:41:39.053Z,4.63
2022-08-27T13:44:10.552Z,4.25
2022-08-27T13:46:48.636Z,3.08
2022-08-27T13:49:22.208Z,2.83
2022-08-27T13:51:51.784Z,3.90
2022-08-27T13:54:20.405Z,3.10
2022-08-27T13:57:08.012Z,4.82
2022-08-27T13:59:42.145Z,4.35
2022-08-27T14:02:25.671Z,4.00
2022-08-27T14:05:09.641Z,2.65
2022-08-27T14:07:40.322Z,2.67
2022-08-27T14:10:27.257Z,4.25
2022-08-27T14:13:01.338Z,2.78
2022-08-27T14:15:33.609Z,3.22
2022-08-27T14:18:02.753Z,4.88
2022-08-27T14:20:31.388Z,2.80
2022-08-27T14:22:59.630Z,3.10
2022-08-27T14:25:29.356Z,2.60
2022-08-27T14:27:58.281Z,2.97
2022-08-27T14:30:29.324Z,2.72
2022-08-27T14:33:00.265Z,2.63
2022-08-27T14:35:29.480Z,3.05
2022-08-27T14:37:58.532Z,2.45
2022-08-27T14:40:28.240Z,3.00
2022-08-27T14:42:56.489Z,4.45
2022-08-27T14:45:25.136Z,2.47
2022-08-27T14:47:54.217Z,4.32
2022-08-27T14:50:30.525Z,2.90
2022-08-27T14:52:58.696Z,2.33
2022-08-27T14:55:28.413Z,2.63
2022-08-27T14:57:57.008Z,3.35
2022-08-27T15:00:25.917Z,3.00
2022-08-27T15:02:55.322Z,2.42
2022-08-27T15:05:24.911Z,3.03
2022-08-27T15:07:56.206Z,2.33
2022-08-27T15:10:26.345Z,3.70
2022-08-27T15:12:55.984Z,3.72
2022-08-27T15:15:24.310Z,3.30
2022-08-27T15:17:52.589Z,4.65
2022-08-27T15:20:20.911Z,3.97
2022-08-27T15:22:52.015Z,4.03
2022-08-27T15:25:21.626Z,3.88
2022-08-27T15:27:49.881Z,3.58
2022-08-27T15:30:25.145Z,3.40
2022-08-27T15:32:53.370Z,4.15
2022-08-27T15:35:26.254Z,4.15
2022-08-27T15:37:55.312Z,3.67
2022-08-27T15:40:24.651Z,4.68
2022-08-27T15:42:57.205Z,4.68
2022-08-27T15:45:27.934Z,7.03
2022-08-27T15:47:56.627Z,3.85
2022-08-27T15:50:25.122Z,4.32
2022-08-27T15:52:58.208Z,2.83
2022-08-27T15:55:29.949Z,3.03
2022-08-27T15:57:59.879Z,3.30
2022-08-27T16:00:32.473Z,4.78
2022-08-27T16:03:01.502Z,3.40
2022-08-27T16:05:33.757Z,3.22
2022-08-27T16:08:01.941Z,2.80
2022-08-27T16:10:30.137Z,4.20
2022-08-27T16:12:58.325Z,5.18
2022-08-27T16:15:26.558Z,14.07
2022-08-27T16:17:59.666Z,9.93
2022-08-27T16:20:28.816Z,5.60
2022-08-27T16:22:57.238Z,4.80
2022-08-27T16:25:26.334Z,5.93
2022-08-27T16:27:54.931Z,4.30
2022-08-27T16:30:26.910Z,5.57
2022-08-27T16:32:56.844Z,6.35
2022-08-27T16:35:25.130Z,6.03
2022-08-27T16:37:54.089Z,8.65
2022-08-27T16:40:22.535Z,7.32
2022-08-27T16:42:52.550Z,6.13
2022-08-27T16:45:23.666Z,6.15
2022-08-27T16:48:09.570Z,5.40
2022-08-27T16:50:39.764Z,5.70
2022-08-27T16:53:10.088Z,7.32
2022-08-27T16:55:39.237Z,6.20
2022-08-27T16:58:23.056Z,7.60
2022-08-27T17:00:53.394Z,5.88
2022-08-27T17:03:23.575Z,12.13
2022-08-27T17:05:54.026Z,6.82
2022-08-27T17:08:26.274Z,6.43
2022-08-27T17:10:56.624Z,7.95
2022-08-27T17:13:28.242Z,6.15
2022-08-27T17:15:58.025Z,5.70
2022-08-27T17:18:28.614Z,7.40
2022-08-27T17:21:00.193Z,7.45
2022-08-27T17:23:34.654Z,7.85
2022-08-27T17:26:03.169Z,7.78
2022-08-27T17:28:31.370Z,9.82
2022-08-27T17:31:01.741Z,9.77
2022-08-27T17:33:35.452Z,8.05
2022-08-27T17:36:06.082Z,11.50
2022-08-27T17:38:37.634Z,8.98
2022-08-27T17:41:12.162Z,12.18
2022-08-27T17:43:41.109Z,10.43
2022-08-27T17:46:09.541Z,11.25
2022-08-27T17:48:37.775Z,10.02
2022-08-27T17:51:07.781Z,10.57
2022-08-27T17:53:36.008Z,11.88
2022-08-27T17:56:04.541Z,13.82
2022-08-27T17:58:32.777Z,10.68
2022-08-27T18:01:00.966Z,17.20
2022-08-27T18:03:30.020Z,14.13
2022-08-27T18:06:14.166Z,13.85
2022-08-27T18:08:42.388Z,11.52
2022-08-27T18:11:12.390Z,12.57
2022-08-27T18:13:40.772Z,11.77
2022-08-27T18:16:09.115Z,11.90
2022-08-27T18:18:38.325Z,23.88
2022-08-27T18:21:10.133Z,15.35
2022-08-27T18:23:40.107Z,16.17
2022-08-27T18:26:12.762Z,14.95
2022-08-27T18:28:40.938Z,19.95
2022-08-27T18:31:10.075Z,17.75
2022-08-27T18:33:38.576Z,18.38
2022-08-27T18:36:07.869Z,25.67
2022-08-27T18:38:36.128Z,14.05
2022-08-27T18:41:08.543Z,15.23
2022-08-27T18:43:37.442Z,16.10
2022-08-27T18:46:06.709Z,12.40
2022-08-27T18:48:35.553Z,14.25
2022-08-27T18:51:06.519Z,12.43
2022-08-27T18:53:39.788Z,14.10
2022-08-27T18:56:10.595Z,13.80
2022-08-27T18:58:39.723Z,13.35
2022-08-27T19:01:11.147Z,13.55
2022-08-27T19:03:42.895Z,11.50
2022-08-27T19:06:11.709Z,13.95
2022-08-27T19:08:42.037Z,11.15
2022-08-27T19:11:12.132Z,12.48
2022-08-27T19:13:41.108Z,12.52
2022-08-27T19:16:14.352Z,17.00
2022-08-27T19:18:43.384Z,12.32
2022-08-27T19:21:12.241Z,14.15
2022-08-27T19:23:40.729Z,11.02
2022-08-27T19:26:15.694Z,12.75
2022-08-27T19:28:45.509Z,11.88
2022-08-27T19:31:14.838Z,11.43
2022-08-27T19:33:43.380Z,11.18
2022-08-27T19:36:15.944Z,14.68
2022-08-27T19:38:45.676Z,13.60
2022-08-27T19:41:15.371Z,13.18
2022-08-27T19:43:46.027Z,16.33
2022-08-27T19:46:17.236Z,14.52
2022-08-27T19:48:45.662Z,13.90
2022-08-27T19:51:14.293Z,12.65
2022-08-27T19:53:43.000Z,11.75
2022-08-27T19:56:15.111Z,12.75
2022-08-27T19:58:44.300Z,13.32
2022-08-27T20:01:13.342Z,12.85
2022-08-27T20:03:41.808Z,15.60
2022-08-27T20:06:10.240Z,13.77
2022-08-27T20:08:38.409Z,12.38
2022-08-27T20:11:06.810Z,15.85
2022-08-27T20:13:36.549Z,13.57
2022-08-27T20:16:08.459Z,11.95
2022-08-27T20:18:41.960Z,14.15
2022-08-27T20:21:10.109Z,13.77
2022-08-27T20:23:38.302Z,14.30
2022-08-27T20:26:06.812Z,14.13
2022-08-27T20:28:40.334Z,13.18
2022-08-27T20:31:09.370Z,14.73
2022-08-27T20:33:38.129Z,13.77
2022-08-27T20:36:08.094Z,13.73
2022-08-27T20:38:36.353Z,13.60
2022-08-27T20:41:05.102Z,16.95
2022-08-27T20:43:33.349Z,13.90
2022-08-27T20:46:03.647Z,15.13
2022-08-27T20:48:31.881Z,15.30
2022-08-27T20:51:00.857Z,15.30
2022-08-27T20:53:29.071Z,17.60
2022-08-27T20:55:57.250Z,14.68
2022-08-27T20:58:39.332Z,14.27
2022-08-27T21:01:09.973Z,16.30
2022-08-27T21:03:38.483Z,13.77
2022-08-27T21:06:07.477Z,15.35
2022-08-27T21:08:37.545Z,13.30
2022-08-27T21:11:11.693Z,15.98
2022-08-27T21:13:55.334Z,16.45
2022-08-27T21:16:26.439Z,15.05
2022-08-27T21:18:55.597Z,14.27
2022-08-27T21:21:24.554Z,16.45
2022-08-27T21:23:52.809Z,14.48
2022-08-27T21:26:22.959Z,20.45
2022-08-27T21:28:55.550Z,15.10
2022-08-27T21:31:26.180Z,15.88
2022-08-27T21:33:54.817Z,18.50
2022-08-27T21:36:23.061Z,17.55
2022-08-27T21:38:51.794Z,14.43
2022-08-27T21:41:20.366Z,16.27
2022-08-27T21:43:48.626Z,16.83
2022-08-27T21:46:17.301Z,15.02
2022-08-27T21:48:47.289Z,16.13
2022-08-27T21:51:26.165Z,16.50
2022-08-27T21:53:54.354Z,16.90
2022-08-27T21:56:22.701Z,20.52
2022-08-27T21:58:51.006Z,17.50
2022-08-27T22:01:19.614Z,17.75
2022-08-27T22:03:50.876Z,16.38
2022-08-27T22:06:19.674Z,16.48
2022-08-27T22:08:48.538Z,17.98
2022-08-27T22:11:21.970Z,18.00
2022-08-27T22:13:52.358Z,23.48
2022-08-27T22:16:20.993Z,17.30
2022-08-27T22:18:54.700Z,18.20
2022-08-27T22:21:23.761Z,19.08
2022-08-27T22:23:52.499Z,16.73
2022-08-27T22:26:21.508Z,16.63
2022-08-27T22:28:50.185Z,18.13
2022-08-27T22:31:18.675Z,16.50
2022-08-27T22:33:46.962Z,19.90
2022-08-27T22:36:17.026Z,17.27
2022-08-27T22:38:45.402Z,16.67
2022-08-27T22:41:16.512Z,17.27
2022-08-27T22:43:46.938Z,17.83
2022-08-27T22:46:15.210Z,20.25
2022-08-27T22:48:43.475Z,16.85
2022-08-27T22:51:12.409Z,17.83
2022-08-27T22:53:42.106Z,16.00
2022-08-27T22:56:10.277Z,17.08
2022-08-27T22:58:38.499Z,17.52
2022-08-27T23:01:07.797Z,17.42
2022-08-27T23:03:36.162Z,16.25
2022-08-27T23:06:04.680Z,16.75
2022-08-27T23:08:32.935Z,17.45
2022-08-27T23:11:03.086Z,17.45
2022-08-27T23:13:32.264Z,18.50
2022-08-27T23:16:00.707Z,18.20
2022-08-27T23:18:29.341Z,19.60
2022-08-27T23:20:57.505Z,16.50
2022-08-27T23:23:27.737Z,17.55
2022-08-27T23:26:16.957Z,19.55
2022-08-27T23:28:46.789Z,19.23
2022-08-27T23:31:16.140Z,17.42
2022-08-27T23:33:44.605Z,19.00
2022-08-27T23:36:12.785Z,19.75
2022-08-27T23:38:41.011Z,20.27
2022-08-27T23:41:09.303Z,18.38
2022-08-27T23:43:37.529Z,17.98
2022-08-27T23:46:07.083Z,20.25
2022-08-27T23:48:35.975Z,18.67
2022-08-27T23:51:05.340Z,17.15
2022-08-27T23:53:33.868Z,20.60
2022-08-27T23:56:02.053Z,20.48
2022-08-27T23:58:30.369Z,17.77
